sensor_id;sensor_type;location;lat;lon;timestamp;P1;durP1;ratioP1;P2;durP2;ratioP2
3081;SDS011;1551;51.046;7.010;2023-01-28T00:02:29;4.43;;;3.22;;
3081;SDS011;1551;51.046;7.010;2023-01-28T00:05:19;5.10;;;3.00;;
3081;SDS011;1551;51.046;7.010;2023-01-28T00:08:08;5.28;;;3.40;;
3081;SDS011;1551;51.046;7.010;2023-01-28T00:10:59;5.10;;;3.70;;
3081;SDS011;1551;51.046;7.010;2023-01-28T00:13:52;4.20;;;3.10;;
3081;SDS011;1551;51.046;7.010;2023-01-28T00:16:42;4.40;;;3.20;;
3081;SDS011;1551;51.046;7.010;2023-01-28T00:19:31;3.70;;;2.70;;
3081;SDS011;1551;51.046;7.010;2023-01-28T00:22:20;5.68;;;3.58;;
3081;SDS011;1551;51.046;7.010;2023-01-28T00:25:10;4.47;;;3.47;;
3081;SDS011;1551;51.046;7.010;2023-01-28T00:27:59;4.70;;;3.40;;
3081;SDS011;1551;51.046;7.010;2023-01-28T00:30:48;4.65;;;3.60;;
3081;SDS011;1551;51.046;7.010;2023-01-28T00:33:36;5.40;;;3.40;;
3081;SDS011;1551;51.046;7.010;2023-01-28T00:36:26;5.40;;;3.87;;
3081;SDS011;1551;51.046;7.010;2023-01-28T00:39:15;5.60;;;4.00;;
3081;SDS011;1551;51.046;7.010;2023-01-28T00:42:04;5.50;;;3.80;;
3081;SDS011;1551;51.046;7.010;2023-01-28T00:44:53;6.22;;;4.13;;
3081;SDS011;1551;51.046;7.010;2023-01-28T00:47:43;6.15;;;4.20;;
3081;SDS011;1551;51.046;7.010;2023-01-28T00:50:32;5.28;;;4.15;;
3081;SDS011;1551;51.046;7.010;2023-01-28T00:53:21;4.97;;;4.00;;
3081;SDS011;1551;51.046;7.010;2023-01-28T00:56:14;7.55;;;4.78;;
3081;SDS011;1551;51.046;7.010;2023-01-28T00:59:05;6.65;;;4.70;;
3081;SDS011;1551;51.046;7.010;2023-01-28T01:01:54;6.20;;;3.88;;
3081;SDS011;1551;51.046;7.010;2023-01-28T01:05:00;5.60;;;4.32;;
3081;SDS011;1551;51.046;7.010;2023-01-28T01:07:48;5.90;;;4.60;;
3081;SDS011;1551;51.046;7.010;2023-01-28T01:10:38;5.50;;;4.50;;
3081;SDS011;1551;51.046;7.010;2023-01-28T01:13:28;5.75;;;4.30;;
3081;SDS011;1551;51.046;7.010;2023-01-28T01:16:19;5.20;;;3.80;;
3081;SDS011;1551;51.046;7.010;2023-01-28T01:19:11;6.25;;;4.25;;
3081;SDS011;1551;51.046;7.010;2023-01-28T01:22:00;5.68;;;4.43;;
3081;SDS011;1551;51.046;7.010;2023-01-28T01:24:49;5.30;;;4.50;;
3081;SDS011;1551;51.046;7.010;2023-01-28T01:27:37;5.15;;;3.50;;
3081;SDS011;1551;51.046;7.010;2023-01-28T01:30:26;6.45;;;4.50;;
3081;SDS011;1551;51.046;7.010;2023-01-28T01:33:15;5.28;;;4.10;;
3081;SDS011;1551;51.046;7.010;2023-01-28T01:36:04;5.85;;;4.30;;
3081;SDS011;1551;51.046;7.010;2023-01-28T01:38:54;4.95;;;4.20;;
3081;SDS011;1551;51.046;7.010;2023-01-28T01:41:43;6.20;;;4.30;;
3081;SDS011;1551;51.046;7.010;2023-01-28T01:48:04;5.97;;;4.10;;
3081;SDS011;1551;51.046;7.010;2023-01-28T01:51:06;7.63;;;4.03;;
3081;SDS011;1551;51.046;7.010;2023-01-28T01:54:00;5.68;;;5.03;;
3081;SDS011;1551;51.046;7.010;2023-01-28T01:56:50;7.88;;;4.88;;
3081;SDS011;1551;51.046;7.010;2023-01-28T01:59:40;6.28;;;4.50;;
3081;SDS011;1551;51.046;7.010;2023-01-28T02:02:34;7.60;;;5.20;;
3081;SDS011;1551;51.046;7.010;2023-01-28T02:05:26;8.50;;;4.60;;
3081;SDS011;1551;51.046;7.010;2023-01-28T02:08:15;7.18;;;5.00;;
3081;SDS011;1551;51.046;7.010;2023-01-28T02:11:10;7.32;;;5.22;;
3081;SDS011;1551;51.046;7.010;2023-01-28T02:14:03;6.40;;;4.80;;
3081;SDS011;1551;51.046;7.010;2023-01-28T02:16:53;7.80;;;5.40;;
3081;SDS011;1551;51.046;7.010;2023-01-28T02:19:45;8.35;;;5.28;;
3081;SDS011;1551;51.046;7.010;2023-01-28T02:29:11;6.20;;;5.30;;
3081;SDS011;1551;51.046;7.010;2023-01-28T02:32:09;9.60;;;6.20;;
3081;SDS011;1551;51.046;7.010;2023-01-28T02:38:17;6.80;;;5.40;;
3081;SDS011;1551;51.046;7.010;2023-01-28T02:41:55;7.47;;;5.60;;
3081;SDS011;1551;51.046;7.010;2023-01-28T02:44:45;6.75;;;5.57;;
3081;SDS011;1551;51.046;7.010;2023-01-28T02:47:34;8.35;;;6.22;;
3081;SDS011;1551;51.046;7.010;2023-01-28T02:50:48;10.75;;;6.68;;
3081;SDS011;1551;51.046;7.010;2023-01-28T02:54:03;8.75;;;6.90;;
3081;SDS011;1551;51.046;7.010;2023-01-28T03:00:33;7.70;;;6.50;;
3081;SDS011;1551;51.046;7.010;2023-01-28T03:04:06;8.77;;;7.35;;
3081;SDS011;1551;51.046;7.010;2023-01-28T03:06:53;9.52;;;7.78;;
3081;SDS011;1551;51.046;7.010;2023-01-28T03:09:48;8.85;;;6.90;;
3081;SDS011;1551;51.046;7.010;2023-01-28T03:12:40;9.00;;;7.20;;
3081;SDS011;1551;51.046;7.010;2023-01-28T03:15:50;8.68;;;6.85;;
3081;SDS011;1551;51.046;7.010;2023-01-28T03:18:58;9.32;;;7.40;;
3081;SDS011;1551;51.046;7.010;2023-01-28T03:22:06;9.82;;;7.50;;
3081;SDS011;1551;51.046;7.010;2023-01-28T03:25:14;9.15;;;6.90;;
3081;SDS011;1551;51.046;7.010;2023-01-28T03:28:28;11.23;;;7.03;;
3081;SDS011;1551;51.046;7.010;2023-01-28T03:31:38;9.77;;;7.18;;
3081;SDS011;1551;51.046;7.010;2023-01-28T03:34:47;9.05;;;7.30;;
3081;SDS011;1551;51.046;7.010;2023-01-28T03:37:55;9.07;;;7.53;;
3081;SDS011;1551;51.046;7.010;2023-01-28T03:40:49;10.00;;;7.35;;
3081;SDS011;1551;51.046;7.010;2023-01-28T03:43:39;10.10;;;7.22;;
3081;SDS011;1551;51.046;7.010;2023-01-28T03:46:29;9.25;;;7.45;;
3081;SDS011;1551;51.046;7.010;2023-01-28T03:49:18;9.80;;;7.00;;
3081;SDS011;1551;51.046;7.010;2023-01-28T03:52:08;9.80;;;7.70;;
3081;SDS011;1551;51.046;7.010;2023-01-28T03:54:57;8.30;;;7.20;;
3081;SDS011;1551;51.046;7.010;2023-01-28T03:57:47;9.75;;;8.13;;
3081;SDS011;1551;51.046;7.010;2023-01-28T04:00:36;8.45;;;7.10;;
3081;SDS011;1551;51.046;7.010;2023-01-28T04:03:30;9.07;;;7.53;;
3081;SDS011;1551;51.046;7.010;2023-01-28T04:06:27;8.80;;;7.35;;
3081;SDS011;1551;51.046;7.010;2023-01-28T04:09:32;10.20;;;6.68;;
3081;SDS011;1551;51.046;7.010;2023-01-28T04:12:57;8.80;;;7.00;;
3081;SDS011;1551;51.046;7.010;2023-01-28T04:15:47;9.88;;;7.90;;
3081;SDS011;1551;51.046;7.010;2023-01-28T04:18:38;9.25;;;7.15;;
3081;SDS011;1551;51.046;7.010;2023-01-28T04:21:27;7.82;;;6.82;;
3081;SDS011;1551;51.046;7.010;2023-01-28T04:24:16;9.02;;;7.22;;
3081;SDS011;1551;51.046;7.010;2023-01-28T04:27:05;7.57;;;6.45;;
3081;SDS011;1551;51.046;7.010;2023-01-28T04:29:54;8.43;;;6.90;;
3081;SDS011;1551;51.046;7.010;2023-01-28T04:32:56;9.07;;;6.40;;
3081;SDS011;1551;51.046;7.010;2023-01-28T04:35:57;8.35;;;6.93;;
3081;SDS011;1551;51.046;7.010;2023-01-28T04:39:06;9.05;;;6.65;;
3081;SDS011;1551;51.046;7.010;2023-01-28T04:41:58;8.70;;;6.60;;
3081;SDS011;1551;51.046;7.010;2023-01-28T04:45:03;8.50;;;7.70;;
3081;SDS011;1551;51.046;7.010;2023-01-28T04:48:12;7.87;;;7.07;;
3081;SDS011;1551;51.046;7.010;2023-01-28T04:51:26;8.27;;;7.30;;
3081;SDS011;1551;51.046;7.010;2023-01-28T04:54:38;7.75;;;6.90;;
3081;SDS011;1551;51.046;7.010;2023-01-28T04:57:28;7.10;;;6.40;;
3081;SDS011;1551;51.046;7.010;2023-01-28T05:00:17;7.80;;;6.47;;
3081;SDS011;1551;51.046;7.010;2023-01-28T05:03:07;8.45;;;6.85;;
3081;SDS011;1551;51.046;7.010;2023-01-28T05:05:56;7.95;;;7.15;;
3081;SDS011;1551;51.046;7.010;2023-01-28T05:09:05;8.52;;;7.13;;
3081;SDS011;1551;51.046;7.010;2023-01-28T05:11:55;7.65;;;6.78;;
3081;SDS011;1551;51.046;7.010;2023-01-28T05:14:44;8.52;;;7.30;;
3081;SDS011;1551;51.046;7.010;2023-01-28T05:17:38;8.73;;;7.60;;
3081;SDS011;1551;51.046;7.010;2023-01-28T05:20:27;8.93;;;7.20;;
3081;SDS011;1551;51.046;7.010;2023-01-28T05:23:19;9.65;;;7.70;;
3081;SDS011;1551;51.046;7.010;2023-01-28T05:26:13;8.77;;;7.88;;
3081;SDS011;1551;51.046;7.010;2023-01-28T05:29:02;8.45;;;7.10;;
3081;SDS011;1551;51.046;7.010;2023-01-28T05:31:51;8.98;;;7.70;;
3081;SDS011;1551;51.046;7.010;2023-01-28T05:34:41;9.00;;;7.22;;
3081;SDS011;1551;51.046;7.010;2023-01-28T05:37:34;8.88;;;7.13;;
3081;SDS011;1551;51.046;7.010;2023-01-28T05:40:23;7.90;;;6.88;;
3081;SDS011;1551;51.046;7.010;2023-01-28T05:43:14;9.20;;;7.97;;
3081;SDS011;1551;51.046;7.010;2023-01-28T05:46:07;8.40;;;7.05;;
3081;SDS011;1551;51.046;7.010;2023-01-28T05:49:15;7.47;;;6.78;;
3081;SDS011;1551;51.046;7.010;2023-01-28T05:52:17;7.53;;;6.65;;
3081;SDS011;1551;51.046;7.010;2023-01-28T05:55:07;8.25;;;6.68;;
3081;SDS011;1551;51.046;7.010;2023-01-28T05:57:57;7.05;;;6.35;;
3081;SDS011;1551;51.046;7.010;2023-01-28T06:00:48;7.05;;;6.10;;
3081;SDS011;1551;51.046;7.010;2023-01-28T06:03:42;7.10;;;6.03;;
3081;SDS011;1551;51.046;7.010;2023-01-28T06:06:30;7.32;;;5.93;;
3081;SDS011;1551;51.046;7.010;2023-01-28T06:09:19;6.73;;;5.83;;
3081;SDS011;1551;51.046;7.010;2023-01-28T06:12:08;6.22;;;5.22;;
3081;SDS011;1551;51.046;7.010;2023-01-28T06:15:09;6.88;;;5.85;;
3081;SDS011;1551;51.046;7.010;2023-01-28T06:18:34;7.00;;;5.90;;
3081;SDS011;1551;51.046;7.010;2023-01-28T06:21:23;8.63;;;5.93;;
3081;SDS011;1551;51.046;7.010;2023-01-28T06:24:12;6.90;;;6.20;;
3081;SDS011;1551;51.046;7.010;2023-01-28T06:27:02;7.80;;;6.17;;
3081;SDS011;1551;51.046;7.010;2023-01-28T06:29:51;8.40;;;7.10;;
3081;SDS011;1551;51.046;7.010;2023-01-28T06:32:41;8.35;;;7.00;;
3081;SDS011;1551;51.046;7.010;2023-01-28T06:35:30;8.20;;;6.50;;
3081;SDS011;1551;51.046;7.010;2023-01-28T06:38:19;7.78;;;6.68;;
3081;SDS011;1551;51.046;7.010;2023-01-28T06:41:08;8.00;;;6.78;;
3081;SDS011;1551;51.046;7.010;2023-01-28T06:43:57;8.50;;;7.13;;
3081;SDS011;1551;51.046;7.010;2023-01-28T06:46:45;8.90;;;7.38;;
3081;SDS011;1551;51.046;7.010;2023-01-28T06:49:35;8.65;;;7.07;;
3081;SDS011;1551;51.046;7.010;2023-01-28T06:52:24;8.15;;;7.20;;
3081;SDS011;1551;51.046;7.010;2023-01-28T06:55:13;8.88;;;7.97;;
3081;SDS011;1551;51.046;7.010;2023-01-28T06:58:03;7.55;;;6.82;;
3081;SDS011;1551;51.046;7.010;2023-01-28T07:00:52;9.32;;;7.68;;
3081;SDS011;1551;51.046;7.010;2023-01-28T07:03:41;8.23;;;6.70;;
3081;SDS011;1551;51.046;7.010;2023-01-28T07:06:30;8.35;;;7.28;;
3081;SDS011;1551;51.046;7.010;2023-01-28T07:09:21;9.07;;;7.13;;
3081;SDS011;1551;51.046;7.010;2023-01-28T07:12:10;8.50;;;7.13;;
3081;SDS011;1551;51.046;7.010;2023-01-28T07:14:59;8.45;;;7.43;;
3081;SDS011;1551;51.046;7.010;2023-01-28T07:17:48;8.80;;;7.90;;
3081;SDS011;1551;51.046;7.010;2023-01-28T07:20:37;9.25;;;8.10;;
3081;SDS011;1551;51.046;7.010;2023-01-28T07:23:26;11.32;;;8.90;;
3081;SDS011;1551;51.046;7.010;2023-01-28T07:26:15;9.20;;;8.30;;
3081;SDS011;1551;51.046;7.010;2023-01-28T07:29:04;9.68;;;7.65;;
3081;SDS011;1551;51.046;7.010;2023-01-28T07:31:53;9.60;;;7.87;;
3081;SDS011;1551;51.046;7.010;2023-01-28T07:34:42;8.95;;;8.05;;
3081;SDS011;1551;51.046;7.010;2023-01-28T07:37:31;9.45;;;7.60;;
3081;SDS011;1551;51.046;7.010;2023-01-28T07:40:20;8.70;;;7.30;;
3081;SDS011;1551;51.046;7.010;2023-01-28T07:43:09;8.15;;;7.35;;
3081;SDS011;1551;51.046;7.010;2023-01-28T07:46:00;9.63;;;8.15;;
3081;SDS011;1551;51.046;7.010;2023-01-28T07:48:49;8.77;;;7.32;;
3081;SDS011;1551;51.046;7.010;2023-01-28T07:51:38;9.20;;;8.20;;
3081;SDS011;1551;51.046;7.010;2023-01-28T07:54:28;10.68;;;7.90;;
3081;SDS011;1551;51.046;7.010;2023-01-28T07:57:17;8.70;;;7.70;;
3081;SDS011;1551;51.046;7.010;2023-01-28T08:00:11;8.27;;;7.47;;
3081;SDS011;1551;51.046;7.010;2023-01-28T08:03:02;8.93;;;8.02;;
3081;SDS011;1551;51.046;7.010;2023-01-28T08:05:54;8.63;;;7.82;;
3081;SDS011;1551;51.046;7.010;2023-01-28T08:08:44;8.43;;;7.63;;
3081;SDS011;1551;51.046;7.010;2023-01-28T08:11:36;8.23;;;7.43;;
3081;SDS011;1551;51.046;7.010;2023-01-28T08:14:26;11.30;;;8.20;;
3081;SDS011;1551;51.046;7.010;2023-01-28T08:17:15;9.73;;;8.40;;
3081;SDS011;1551;51.046;7.010;2023-01-28T08:20:05;10.43;;;8.57;;
3081;SDS011;1551;51.046;7.010;2023-01-28T08:25:57;9.23;;;7.35;;
3081;SDS011;1551;51.046;7.010;2023-01-28T08:28:46;8.43;;;7.57;;
3081;SDS011;1551;51.046;7.010;2023-01-28T08:31:35;8.18;;;7.38;;
3081;SDS011;1551;51.046;7.010;2023-01-28T08:34:24;10.07;;;7.40;;
3081;SDS011;1551;51.046;7.010;2023-01-28T08:37:13;8.50;;;7.60;;
3081;SDS011;1551;51.046;7.010;2023-01-28T08:40:02;9.10;;;8.20;;
3081;SDS011;1551;51.046;7.010;2023-01-28T08:42:52;8.90;;;8.00;;
3081;SDS011;1551;51.046;7.010;2023-01-28T08:45:41;7.90;;;7.10;;
3081;SDS011;1551;51.046;7.010;2023-01-28T08:48:30;8.55;;;6.70;;
3081;SDS011;1551;51.046;7.010;2023-01-28T08:51:19;7.10;;;6.40;;
3081;SDS011;1551;51.046;7.010;2023-01-28T08:54:08;7.15;;;6.07;;
3081;SDS011;1551;51.046;7.010;2023-01-28T08:56:57;8.15;;;6.80;;
3081;SDS011;1551;51.046;7.010;2023-01-28T08:59:47;7.15;;;6.45;;
3081;SDS011;1551;51.046;7.010;2023-01-28T09:02:36;9.13;;;6.40;;
3081;SDS011;1551;51.046;7.010;2023-01-28T09:05:25;7.10;;;6.03;;
3081;SDS011;1551;51.046;7.010;2023-01-28T09:08:14;8.50;;;6.10;;
3081;SDS011;1551;51.046;7.010;2023-01-28T09:11:04;6.90;;;6.20;;
3081;SDS011;1551;51.046;7.010;2023-01-28T09:13:53;6.65;;;5.95;;
3081;SDS011;1551;51.046;7.010;2023-01-28T09:16:42;7.30;;;6.55;;
3081;SDS011;1551;51.046;7.010;2023-01-28T09:19:30;7.53;;;6.78;;
3081;SDS011;1551;51.046;7.010;2023-01-28T09:22:19;7.40;;;6.60;;
3081;SDS011;1551;51.046;7.010;2023-01-28T09:25:09;9.23;;;7.03;;
3081;SDS011;1551;51.046;7.010;2023-01-28T09:27:58;7.60;;;6.60;;
3081;SDS011;1551;51.046;7.010;2023-01-28T09:30:47;9.00;;;7.10;;
3081;SDS011;1551;51.046;7.010;2023-01-28T09:33:37;10.45;;;8.10;;
3081;SDS011;1551;51.046;7.010;2023-01-28T09:36:27;9.65;;;8.65;;
3081;SDS011;1551;51.046;7.010;2023-01-28T09:39:16;11.40;;;10.30;;
3081;SDS011;1551;51.046;7.010;2023-01-28T09:45:42;11.90;;;10.70;;
3081;SDS011;1551;51.046;7.010;2023-01-28T09:48:36;12.20;;;10.90;;
3081;SDS011;1551;51.046;7.010;2023-01-28T09:51:33;11.60;;;10.40;;
3081;SDS011;1551;51.046;7.010;2023-01-28T09:54:39;13.05;;;11.55;;
3081;SDS011;1551;51.046;7.010;2023-01-28T09:57:36;14.07;;;11.85;;
3081;SDS011;1551;51.046;7.010;2023-01-28T10:03:58;15.48;;;13.30;;
3081;SDS011;1551;51.046;7.010;2023-01-28T10:07:04;21.42;;;17.30;;
3081;SDS011;1551;51.046;7.010;2023-01-28T10:10:04;15.13;;;13.52;;
3081;SDS011;1551;51.046;7.010;2023-01-28T10:19:25;13.30;;;11.90;;
3081;SDS011;1551;51.046;7.010;2023-01-28T10:22:20;14.95;;;13.38;;
3081;SDS011;1551;51.046;7.010;2023-01-28T10:25:18;16.67;;;14.87;;
3081;SDS011;1551;51.046;7.010;2023-01-28T10:28:17;16.53;;;14.77;;
3081;SDS011;1551;51.046;7.010;2023-01-28T10:31:11;14.13;;;12.60;;
3081;SDS011;1551;51.046;7.010;2023-01-28T10:34:02;15.48;;;13.93;;
3081;SDS011;1551;51.046;7.010;2023-01-28T10:36:52;16.52;;;14.82;;
3081;SDS011;1551;51.046;7.010;2023-01-28T10:39:40;17.00;;;15.02;;
3081;SDS011;1551;51.046;7.010;2023-01-28T10:42:32;17.63;;;15.00;;
3081;SDS011;1551;51.046;7.010;2023-01-28T10:45:23;17.17;;;14.82;;
3081;SDS011;1551;51.046;7.010;2023-01-28T10:51:09;18.20;;;14.32;;
3081;SDS011;1551;51.046;7.010;2023-01-28T10:53:58;17.77;;;15.40;;
3081;SDS011;1551;51.046;7.010;2023-01-28T10:56:49;16.65;;;14.43;;
3081;SDS011;1551;51.046;7.010;2023-01-28T10:59:41;16.63;;;14.00;;
3081;SDS011;1551;51.046;7.010;2023-01-28T11:02:32;18.70;;;14.45;;
3081;SDS011;1551;51.046;7.010;2023-01-28T11:05:26;16.40;;;14.70;;
3081;SDS011;1551;51.046;7.010;2023-01-28T11:08:19;15.50;;;13.85;;
3081;SDS011;1551;51.046;7.010;2023-01-28T11:11:12;14.95;;;13.02;;
3081;SDS011;1551;51.046;7.010;2023-01-28T11:14:03;17.80;;;14.55;;
3081;SDS011;1551;51.046;7.010;2023-01-28T11:16:53;16.53;;;14.50;;
3081;SDS011;1551;51.046;7.010;2023-01-28T11:19:43;15.95;;;13.82;;
3081;SDS011;1551;51.046;7.010;2023-01-28T11:22:34;16.17;;;13.43;;
3081;SDS011;1551;51.046;7.010;2023-01-28T11:25:33;15.20;;;13.30;;
3081;SDS011;1551;51.046;7.010;2023-01-28T11:28:23;14.43;;;12.93;;
3081;SDS011;1551;51.046;7.010;2023-01-28T11:31:14;15.30;;;12.80;;
3081;SDS011;1551;51.046;7.010;2023-01-28T11:34:05;14.60;;;13.10;;
3081;SDS011;1551;51.046;7.010;2023-01-28T11:37:00;13.10;;;11.80;;
3081;SDS011;1551;51.046;7.010;2023-01-28T11:40:13;16.58;;;12.90;;
3081;SDS011;1551;51.046;7.010;2023-01-28T11:43:08;16.27;;;14.05;;
3081;SDS011;1551;51.046;7.010;2023-01-28T11:49:30;15.15;;;13.23;;
3081;SDS011;1551;51.046;7.010;2023-01-28T11:52:36;15.30;;;13.70;;
3081;SDS011;1551;51.046;7.010;2023-01-28T11:58:47;15.65;;;13.73;;
3081;SDS011;1551;51.046;7.010;2023-01-28T12:07:49;15.50;;;13.75;;
3081;SDS011;1551;51.046;7.010;2023-01-28T12:13:59;16.30;;;14.40;;
3081;SDS011;1551;51.046;7.010;2023-01-28T12:20:41;16.80;;;14.77;;
3081;SDS011;1551;51.046;7.010;2023-01-28T12:30:46;16.45;;;14.70;;
3081;SDS011;1551;51.046;7.010;2023-01-28T12:37:17;17.60;;;13.55;;
3081;SDS011;1551;51.046;7.010;2023-01-28T12:40:43;23.80;;;18.10;;
3081;SDS011;1551;51.046;7.010;2023-01-28T12:49:47;18.55;;;15.02;;
3081;SDS011;1551;51.046;7.010;2023-01-28T12:52:43;17.25;;;14.00;;
3081;SDS011;1551;51.046;7.010;2023-01-28T12:55:46;17.10;;;14.55;;
3081;SDS011;1551;51.046;7.010;2023-01-28T12:58:57;17.60;;;13.57;;
3081;SDS011;1551;51.046;7.010;2023-01-28T13:01:55;15.30;;;13.60;;
3081;SDS011;1551;51.046;7.010;2023-01-28T13:04:53;17.48;;;14.35;;
3081;SDS011;1551;51.046;7.010;2023-01-28T13:07:53;16.58;;;14.10;;
3081;SDS011;1551;51.046;7.010;2023-01-28T13:10:46;16.48;;;13.90;;
3081;SDS011;1551;51.046;7.010;2023-01-28T13:13:37;16.52;;;13.45;;
3081;SDS011;1551;51.046;7.010;2023-01-28T13:16:32;15.85;;;13.43;;
3081;SDS011;1551;51.046;7.010;2023-01-28T13:19:22;14.68;;;13.18;;
3081;SDS011;1551;51.046;7.010;2023-01-28T13:22:33;15.57;;;13.55;;
3081;SDS011;1551;51.046;7.010;2023-01-28T13:25:25;19.10;;;14.07;;
3081;SDS011;1551;51.046;7.010;2023-01-28T13:28:29;15.23;;;12.85;;
3081;SDS011;1551;51.046;7.010;2023-01-28T13:31:21;14.97;;;13.47;;
3081;SDS011;1551;51.046;7.010;2023-01-28T13:37:30;12.93;;;11.60;;
3081;SDS011;1551;51.046;7.010;2023-01-28T13:40:25;12.52;;;10.98;;
3081;SDS011;1551;51.046;7.010;2023-01-28T13:43:24;10.27;;;9.27;;
3081;SDS011;1551;51.046;7.010;2023-01-28T13:46:25;10.13;;;9.13;;
3081;SDS011;1551;51.046;7.010;2023-01-28T13:49:17;13.07;;;11.30;;
3081;SDS011;1551;51.046;7.010;2023-01-28T13:52:15;11.05;;;9.75;;
3081;SDS011;1551;51.046;7.010;2023-01-28T14:04:29;10.35;;;9.35;;
3081;SDS011;1551;51.046;7.010;2023-01-28T14:06:57;10.15;;;8.90;;
3081;SDS011;1551;51.046;7.010;2023-01-28T14:09:58;9.25;;;8.35;;
3081;SDS011;1551;51.046;7.010;2023-01-28T14:19:09;10.48;;;9.38;;
3081;SDS011;1551;51.046;7.010;2023-01-28T14:22:05;9.55;;;8.50;;
3081;SDS011;1551;51.046;7.010;2023-01-28T14:24:56;9.50;;;8.18;;
3081;SDS011;1551;51.046;7.010;2023-01-28T14:27:49;9.88;;;8.88;;
3081;SDS011;1551;51.046;7.010;2023-01-28T14:33:41;12.77;;;11.35;;
3081;SDS011;1551;51.046;7.010;2023-01-28T14:36:31;12.70;;;11.40;;
3081;SDS011;1551;51.046;7.010;2023-01-28T14:39:25;15.15;;;12.50;;
3081;SDS011;1551;51.046;7.010;2023-01-28T14:42:21;14.27;;;12.18;;
3081;SDS011;1551;51.046;7.010;2023-01-28T14:48:46;12.57;;;11.37;;
3081;SDS011;1551;51.046;7.010;2023-01-28T14:58:38;12.15;;;10.85;;
3081;SDS011;1551;51.046;7.010;2023-01-28T15:01:33;13.25;;;11.02;;
3081;SDS011;1551;51.046;7.010;2023-01-28T15:04:23;11.88;;;10.68;;
3081;SDS011;1551;51.046;7.010;2023-01-28T15:07:23;11.98;;;10.60;;
3081;SDS011;1551;51.046;7.010;2023-01-28T15:10:15;11.55;;;10.45;;
3081;SDS011;1551;51.046;7.010;2023-01-28T15:13:07;11.95;;;10.75;;
3081;SDS011;1551;51.046;7.010;2023-01-28T15:16:01;10.90;;;9.80;;
3081;SDS011;1551;51.046;7.010;2023-01-28T15:18:51;11.93;;;10.73;;
3081;SDS011;1551;51.046;7.010;2023-01-28T15:21:40;10.63;;;9.52;;
3081;SDS011;1551;51.046;7.010;2023-01-28T15:24:32;11.90;;;10.70;;
3081;SDS011;1551;51.046;7.010;2023-01-28T15:27:27;11.60;;;10.50;;
3081;SDS011;1551;51.046;7.010;2023-01-28T15:30:25;11.33;;;10.23;;
3081;SDS011;1551;51.046;7.010;2023-01-28T15:33:20;10.90;;;9.73;;
3081;SDS011;1551;51.046;7.010;2023-01-28T15:36:10;12.35;;;11.10;;
3081;SDS011;1551;51.046;7.010;2023-01-28T15:38:59;12.00;;;10.80;;
3081;SDS011;1551;51.046;7.010;2023-01-28T15:41:51;11.60;;;10.40;;
3081;SDS011;1551;51.046;7.010;2023-01-28T15:44:43;11.80;;;10.60;;
3081;SDS011;1551;51.046;7.010;2023-01-28T15:47:34;11.02;;;10.02;;
3081;SDS011;1551;51.046;7.010;2023-01-28T15:50:23;12.10;;;10.90;;
3081;SDS011;1551;51.046;7.010;2023-01-28T15:53:13;12.90;;;11.02;;
3081;SDS011;1551;51.046;7.010;2023-01-28T15:56:06;11.63;;;10.43;;
3081;SDS011;1551;51.046;7.010;2023-01-28T15:59:07;12.18;;;10.73;;
3081;SDS011;1551;51.046;7.010;2023-01-28T16:02:18;12.30;;;11.00;;
3081;SDS011;1551;51.046;7.010;2023-01-28T16:08:26;16.70;;;13.93;;
3081;SDS011;1551;51.046;7.010;2023-01-28T16:11:26;12.85;;;11.50;;
3081;SDS011;1551;51.046;7.010;2023-01-28T16:14:33;12.50;;;11.20;;
3081;SDS011;1551;51.046;7.010;2023-01-28T16:17:37;12.97;;;10.97;;
3081;SDS011;1551;51.046;7.010;2023-01-28T16:20:28;14.05;;;11.55;;
3081;SDS011;1551;51.046;7.010;2023-01-28T16:23:22;31.73;;;20.67;;
3081;SDS011;1551;51.046;7.010;2023-01-28T16:26:19;17.08;;;13.40;;
3081;SDS011;1551;51.046;7.010;2023-01-28T16:29:12;15.88;;;12.52;;
3081;SDS011;1551;51.046;7.010;2023-01-28T16:32:03;14.85;;;11.88;;
3081;SDS011;1551;51.046;7.010;2023-01-28T16:35:13;14.80;;;12.35;;
3081;SDS011;1551;51.046;7.010;2023-01-28T16:38:09;14.45;;;12.93;;
3081;SDS011;1551;51.046;7.010;2023-01-28T16:41:04;16.60;;;14.20;;
3081;SDS011;1551;51.046;7.010;2023-01-28T16:43:53;16.45;;;14.63;;
3081;SDS011;1551;51.046;7.010;2023-01-28T16:46:42;19.77;;;16.33;;
3081;SDS011;1551;51.046;7.010;2023-01-28T16:49:31;23.07;;;16.43;;
3081;SDS011;1551;51.046;7.010;2023-01-28T16:52:20;16.83;;;14.60;;
3081;SDS011;1551;51.046;7.010;2023-01-28T16:55:11;23.70;;;17.02;;
3081;SDS011;1551;51.046;7.010;2023-01-28T16:58:01;21.80;;;17.33;;
3081;SDS011;1551;51.046;7.010;2023-01-28T17:00:50;22.02;;;17.33;;
3081;SDS011;1551;51.046;7.010;2023-01-28T17:03:39;22.98;;;17.98;;
3081;SDS011;1551;51.046;7.010;2023-01-28T17:06:28;18.52;;;16.10;;
3081;SDS011;1551;51.046;7.010;2023-01-28T17:09:17;22.20;;;17.20;;
3081;SDS011;1551;51.046;7.010;2023-01-28T17:12:06;19.67;;;16.13;;
3081;SDS011;1551;51.046;7.010;2023-01-28T17:14:55;24.08;;;17.90;;
3081;SDS011;1551;51.046;7.010;2023-01-28T17:17:46;21.30;;;17.55;;
3081;SDS011;1551;51.046;7.010;2023-01-28T17:20:37;20.75;;;16.92;;
3081;SDS011;1551;51.046;7.010;2023-01-28T17:23:28;21.77;;;16.80;;
3081;SDS011;1551;51.046;7.010;2023-01-28T17:26:16;27.35;;;20.90;;
3081;SDS011;1551;51.046;7.010;2023-01-28T17:29:06;28.88;;;20.13;;
3081;SDS011;1551;51.046;7.010;2023-01-28T17:31:55;26.53;;;19.30;;
3081;SDS011;1551;51.046;7.010;2023-01-28T17:34:46;21.80;;;19.30;;
3081;SDS011;1551;51.046;7.010;2023-01-28T17:37:35;23.13;;;19.17;;
3081;SDS011;1551;51.046;7.010;2023-01-28T17:40:26;25.75;;;21.73;;
3081;SDS011;1551;51.046;7.010;2023-01-28T17:43:15;24.42;;;19.33;;
3081;SDS011;1551;51.046;7.010;2023-01-28T17:46:11;28.35;;;20.77;;
3081;SDS011;1551;51.046;7.010;2023-01-28T17:49:01;37.38;;;26.23;;
3081;SDS011;1551;51.046;7.010;2023-01-28T17:51:50;31.00;;;23.65;;
3081;SDS011;1551;51.046;7.010;2023-01-28T17:54:40;26.75;;;22.52;;
3081;SDS011;1551;51.046;7.010;2023-01-28T17:57:30;29.48;;;23.33;;
3081;SDS011;1551;51.046;7.010;2023-01-28T18:00:19;28.77;;;22.52;;
3081;SDS011;1551;51.046;7.010;2023-01-28T18:03:11;27.52;;;21.35;;
3081;SDS011;1551;51.046;7.010;2023-01-28T18:06:01;26.40;;;20.58;;
3081;SDS011;1551;51.046;7.010;2023-01-28T18:08:52;25.35;;;19.42;;
3081;SDS011;1551;51.046;7.010;2023-01-28T18:11:42;28.30;;;20.52;;
3081;SDS011;1551;51.046;7.010;2023-01-28T18:14:31;27.10;;;20.02;;
3081;SDS011;1551;51.046;7.010;2023-01-28T18:17:20;28.77;;;19.77;;
3081;SDS011;1551;51.046;7.010;2023-01-28T18:20:14;25.90;;;19.20;;
3081;SDS011;1551;51.046;7.010;2023-01-28T18:23:04;30.20;;;22.80;;
3081;SDS011;1551;51.046;7.010;2023-01-28T18:25:57;31.70;;;24.20;;
3081;SDS011;1551;51.046;7.010;2023-01-28T18:28:47;32.90;;;25.10;;
3081;SDS011;1551;51.046;7.010;2023-01-28T18:31:37;28.25;;;23.00;;
3081;SDS011;1551;51.046;7.010;2023-01-28T18:34:26;29.65;;;23.02;;
3081;SDS011;1551;51.046;7.010;2023-01-28T18:37:16;29.73;;;22.13;;
3081;SDS011;1551;51.046;7.010;2023-01-28T18:40:05;29.53;;;20.97;;
3081;SDS011;1551;51.046;7.010;2023-01-28T18:42:55;26.03;;;21.20;;
3081;SDS011;1551;51.046;7.010;2023-01-28T18:45:44;29.45;;;21.17;;
3081;SDS011;1551;51.046;7.010;2023-01-28T18:48:37;26.40;;;19.27;;
3081;SDS011;1551;51.046;7.010;2023-01-28T18:51:26;26.63;;;19.65;;
3081;SDS011;1551;51.046;7.010;2023-01-28T18:54:15;25.98;;;20.00;;
3081;SDS011;1551;51.046;7.010;2023-01-28T18:57:04;28.57;;;20.53;;
3081;SDS011;1551;51.046;7.010;2023-01-28T18:59:53;24.90;;;20.98;;
3081;SDS011;1551;51.046;7.010;2023-01-28T19:02:42;28.17;;;20.80;;
3081;SDS011;1551;51.046;7.010;2023-01-28T19:05:35;32.67;;;23.75;;
3081;SDS011;1551;51.046;7.010;2023-01-28T19:08:24;29.58;;;22.40;;
3081;SDS011;1551;51.046;7.010;2023-01-28T19:11:13;29.30;;;22.52;;
3081;SDS011;1551;51.046;7.010;2023-01-28T19:14:02;30.00;;;24.13;;
3081;SDS011;1551;51.046;7.010;2023-01-28T19:16:51;32.00;;;24.38;;
3081;SDS011;1551;51.046;7.010;2023-01-28T19:19:40;30.05;;;22.17;;
3081;SDS011;1551;51.046;7.010;2023-01-28T19:22:29;29.23;;;21.75;;
3081;SDS011;1551;51.046;7.010;2023-01-28T19:25:18;28.15;;;21.60;;
3081;SDS011;1551;51.046;7.010;2023-01-28T19:28:07;28.27;;;20.80;;
3081;SDS011;1551;51.046;7.010;2023-01-28T19:30:56;28.90;;;21.73;;